Time;durP1;ratioP1;P1;durP2;ratioP2;P2;SDS_P1;SDS_P2;PMS_P1;PMS_P2;Temp;Humidity;BMP_temperature;BMP_pressure;BME280_temperature;BME280_humidity;BME280_pressure;Samples;Min_cycle;Max_cycle;Signal;HPM_P1;HPM_P2
2022/10/09 00:00:12;;;;;;;10.70;6.70;;;;;;;8.24;98.92;101369.63;5113972;28;20032;-81
2022/10/09 00:02:39;;;;;;;15.75;6.75;;;;;;;8.21;99.73;101360.00;5121482;28;20261;-80
2022/10/09 00:05:06;;;;;;;9.82;6.20;;;;;;;8.28;99.58;101374.81;5108953;28;20051;-77
2022/10/09 00:07:32;;;;;;;10.38;6.45;;;;;;;8.18;98.76;101370.63;5119103;28;20066;-78
2022/10/09 00:09:59;;;;;;;8.52;6.20;;;;;;;8.08;99.67;101369.94;5115364;28;20044;-81
2022/10/09 00:12:26;;;;;;;10.32;6.25;;;;;;;7.93;100.00;101354.44;5116440;28;20044;-78
2022/10/09 00:14:52;;;;;;;9.82;6.40;;;;;;;7.91;100.00;101360.66;5111986;28;20047;-84
2022/10/09 00:17:19;;;;;;;13.27;6.63;;;;;;;7.77;100.00;101345.09;5112411;28;20044;-82
2022/10/09 00:19:46;;;;;;;12.02;6.78;;;;;;;7.94;100.00;101361.47;5105787;28;20059;-82
2022/10/09 00:22:12;;;;;;;9.25;6.43;;;;;;;8.04;100.00;101368.25;5108511;28;20071;-76
2022/10/09 00:24:41;;;;;;;12.20;6.50;;;;;;;7.89;100.00;101336.06;5108065;28;20051;-82
2022/10/09 00:27:07;;;;;;;10.00;6.40;;;;;;;7.80;100.00;101329.22;5115604;28;20116;-75
2022/10/09 00:29:34;;;;;;;12.52;7.35;;;;;;;7.78;100.00;101333.66;5121512;28;20264;-80
2022/10/09 00:32:00;;;;;;;10.48;7.00;;;;;;;7.67;100.00;101325.13;5124494;28;20031;-81
2022/10/09 00:34:27;;;;;;;13.35;6.85;;;;;;;7.92;100.00;101360.63;5122025;28;20066;-76
2022/10/09 00:36:54;;;;;;;9.88;6.93;;;;;;;8.00;100.00;101366.63;5110339;28;20059;-78
2022/10/09 00:39:20;;;;;;;11.77;7.72;;;;;;;7.94;100.00;101365.88;5112229;28;20151;-75
2022/10/09 00:41:47;;;;;;;11.15;7.70;;;;;;;7.62;100.00;101317.28;5112492;28;20079;-80
2022/10/09 00:44:46;;;;;;;10.90;7.88;;;;;;;7.81;100.00;101359.09;5113666;28;20096;-80
2022/10/09 00:47:33;;;;;;;15.00;7.38;;;;;;;7.65;100.00;101340.09;5105764;28;20122;-76
2022/10/09 00:50:10;;;;;;;12.93;7.53;;;;;;;7.73;100.00;101367.16;5105503;28;20103;-87
2022/10/09 00:52:37;;;;;;;12.55;7.30;;;;;;;7.52;100.00;101331.56;5104983;28;20135;-75
2022/10/09 00:55:05;;;;;;;14.48;7.10;;;;;;;7.68;100.00;101358.50;5112416;28;20068;-83
2022/10/09 00:57:33;;;;;;;14.60;7.20;;;;;;;7.65;100.00;101369.09;5112461;28;20488;-85
2022/10/09 01:00:04;;;;;;;12.90;7.63;;;;;;;7.43;100.00;101346.66;5114615;28;20078;-84
2022/10/09 01:02:31;;;;;;;11.68;7.40;;;;;;;7.34;100.00;101338.03;5105976;28;20467;-83
2022/10/09 01:04:58;;;;;;;12.48;7.72;;;;;;;7.41;100.00;101362.50;5110735;28;20044;-82
2022/10/09 01:07:43;;;;;;;10.60;7.65;;;;;;;7.35;100.00;101352.97;5089979;28;20062;-79
2022/10/09 01:10:36;;;;;;;10.73;7.75;;;;;;;7.40;100.00;101364.25;5112073;28;20483;-72
2022/10/09 01:13:11;;;;;;;14.95;8.27;;;;;;;7.36;100.00;101359.09;5111395;28;20097;-85
2022/10/09 01:15:50;;;;;;;11.77;8.60;;;;;;;7.34;100.00;101361.75;5108990;28;20150;-82
2022/10/09 01:18:29;;;;;;;16.85;7.65;;;;;;;7.16;100.00;101335.75;5109274;28;20048;-84
2022/10/09 01:21:08;;;;;;;11.45;6.95;;;;;;;7.25;100.00;101330.28;5110345;28;20419;-78
2022/10/09 01:23:51;;;;;;;11.23;7.75;;;;;;;7.50;100.00;101356.22;5111136;28;20079;-79
2022/10/09 01:26:28;;;;;;;14.07;7.80;;;;;;;7.55;100.00;101351.72;5120312;28;20036;-76
2022/10/09 01:28:59;;;;;;;13.50;7.97;;;;;;;7.47;100.00;101351.84;5122290;28;20055;-81
2022/10/09 01:31:29;;;;;;;11.30;8.70;;;;;;;7.31;100.00;101329.31;5119339;28;20075;-77
2022/10/09 01:33:58;;;;;;;14.02;8.38;;;;;;;7.43;100.00;101341.38;5125038;28;20057;-82
2022/10/09 01:36:28;;;;;;;13.60;8.48;;;;;;;7.39;100.00;101330.06;5116783;28;20102;-79
2022/10/09 01:38:58;;;;;;;14.63;9.07;;;;;;;7.38;100.00;101342.38;5102078;28;20078;-86
2022/10/09 01:41:25;;;;;;;15.45;9.13;;;;;;;7.28;100.00;101345.19;5115611;28;20148;-79
2022/10/09 01:43:52;;;;;;;10.98;8.15;;;;;;;7.22;100.00;101346.19;5110641;28;20055;-85
2022/10/09 01:46:21;;;;;;;14.73;8.57;;;;;;;7.07;100.00;101325.38;5113307;28;20058;-79
2022/10/09 01:49:29;;;;;;;14.10;8.23;;;;;;;7.19;100.00;101338.34;5116572;28;20044;-77
2022/10/09 01:52:11;;;;;;;12.20;8.50;;;;;;;7.13;100.00;101341.06;5117224;28;20705;-81
2022/10/09 01:54:53;;;;;;;11.25;8.15;;;;;;;7.11;100.00;101341.97;5114081;28;20058;-74
2022/10/09 01:57:51;;;;;;;14.98;8.85;;;;;;;7.05;100.00;101335.06;5108157;28;20073;-77
2022/10/09 02:00:20;;;;;;;11.93;8.43;;;;;;;7.00;100.00;101332.50;5088511;28;20048;-73
2022/10/09 02:02:49;;;;;;;15.85;8.77;;;;;;;6.80;100.00;101307.41;5109930;28;20134;-85
2022/10/09 02:05:21;;;;;;;14.90;9.15;;;;;;;6.78;100.00;101302.16;5108783;28;20069;-83
2022/10/09 02:07:48;;;;;;;11.02;8.82;;;;;;;6.93;100.00;101330.00;5108391;28;20613;-84
2022/10/09 02:10:16;;;;;;;14.40;9.10;;;;;;;6.79;100.00;101303.03;5094145;28;20070;-79
2022/10/09 02:12:49;;;;;;;16.48;8.80;;;;;;;7.01;100.00;101325.47;5113326;28;20096;-82
2022/10/09 02:15:16;;;;;;;14.63;9.15;;;;;;;6.99;100.00;101319.38;5106319;28;20051;-86
2022/10/09 02:17:48;;;;;;;14.05;8.80;;;;;;;7.00;100.00;101318.47;5111548;28;20134;-80
2022/10/09 02:20:30;;;;;;;12.80;8.50;;;;;;;6.93;100.00;101316.84;5116368;28;20108;-83
2022/10/09 02:23:00;;;;;;;13.23;9.45;;;;;;;6.90;100.00;101322.19;5108684;28;20044;-83
2022/10/09 02:25:28;;;;;;;15.80;9.13;;;;;;;6.70;100.00;101290.91;5112557;28;20487;-75
2022/10/09 02:27:55;;;;;;;14.48;9.10;;;;;;;6.84;100.00;101320.50;5108899;28;20043;-84
2022/10/09 02:30:25;;;;;;;11.38;9.52;;;;;;;6.82;100.00;101321.41;5113006;28;20123;-80
2022/10/09 02:32:53;;;;;;;13.70;9.45;;;;;;;6.74;100.00;101316.31;5108387;28;20414;-81
2022/10/09 02:35:20;;;;;;;15.13;9.80;;;;;;;6.71;100.00;101321.59;5111763;28;20602;-78
2022/10/09 02:37:48;;;;;;;12.38;8.70;;;;;;;6.66;100.00;101303.25;5107060;28;20052;-83
2022/10/09 02:40:15;;;;;;;13.70;9.23;;;;;;;6.67;100.00;101315.53;5109288;28;20131;-81
2022/10/09 02:42:41;;;;;;;14.38;9.73;;;;;;;6.65;100.00;101312.03;5109808;28;20492;-82
2022/10/09 02:45:09;;;;;;;13.98;9.75;;;;;;;6.64;100.00;101317.31;5103022;28;20063;-80
2022/10/09 02:47:35;;;;;;;11.05;8.85;;;;;;;6.67;100.00;101323.41;5110301;28;20095;-77
2022/10/09 02:50:02;;;;;;;10.15;8.82;;;;;;;6.67;100.00;101320.78;5108752;28;20485;-77
2022/10/09 02:52:29;;;;;;;12.38;8.55;;;;;;;6.66;100.00;101321.69;5106246;28;20050;-79
2022/10/09 02:54:55;;;;;;;12.35;9.20;;;;;;;6.61;100.00;101310.34;5106276;28;20051;-83
2022/10/09 02:57:22;;;;;;;13.40;9.05;;;;;;;6.48;100.00;101292.16;5104574;28;20054;-76
2022/10/09 02:59:48;;;;;;;15.98;9.02;;;;;;;6.56;100.00;101306.06;5112598;28;20051;-84
2022/10/09 03:02:15;;;;;;;11.65;8.30;;;;;;;6.53;100.00;101312.25;5103678;28;20372;-81
2022/10/09 03:04:42;;;;;;;11.68;8.10;;;;;;;6.44;100.00;101291.34;5103198;28;20047;-82
2022/10/09 03:07:08;;;;;;;13.80;9.05;;;;;;;6.50;100.00;101307.03;5108862;28;20075;-81
2022/10/09 03:09:35;;;;;;;13.00;8.63;;;;;;;6.48;100.00;101295.66;5109531;28;20052;-83
2022/10/09 03:12:02;;;;;;;12.05;8.25;;;;;;;6.43;100.00;101292.25;5114850;28;20044;-80
2022/10/09 03:14:28;;;;;;;11.05;8.25;;;;;;;6.50;100.00;101303.53;5107565;28;20050;-79
2022/10/09 03:16:56;;;;;;;11.43;8.13;;;;;;;6.59;100.00;101306.03;5094757;28;20054;-84
2022/10/09 03:19:23;;;;;;;9.65;8.18;;;;;;;6.59;100.00;101309.53;5109051;28;20182;-73
2022/10/09 03:21:49;;;;;;;10.20;7.55;;;;;;;6.63;100.00;101315.59;5122129;28;20047;-83
2022/10/09 03:24:16;;;;;;;10.52;7.60;;;;;;;6.46;100.00;101284.28;5118084;28;20043;-82
2022/10/09 03:26:43;;;;;;;14.10;8.15;;;;;;;6.63;100.00;101312.94;5108536;28;20552;-76
2022/10/09 03:29:09;;;;;;;13.90;7.85;;;;;;;6.48;100.00;101289.50;5104665;28;20418;-83
2022/10/09 03:31:36;;;;;;;12.82;8.40;;;;;;;6.50;100.00;101304.38;5104789;28;20054;-82
2022/10/09 03:34:18;;;;;;;13.73;8.93;;;;;;;6.52;100.00;101307.88;5107549;28;20056;-81
2022/10/09 03:36:44;;;;;;;11.30;8.35;;;;;;;6.52;100.00;101314.91;5103762;28;20393;-76
2022/10/09 03:39:11;;;;;;;11.18;8.23;;;;;;;6.34;100.00;101292.38;5108752;28;20518;-83
2022/10/09 03:41:38;;;;;;;12.65;8.63;;;;;;;6.34;100.00;101314.28;5114113;28;20198;-72
2022/10/09 03:44:04;;;;;;;14.27;9.35;;;;;;;6.16;100.00;101293.50;5113714;28;20053;-83
2022/10/09 03:46:31;;;;;;;12.98;8.88;;;;;;;6.27;100.00;101323.16;5108838;28;20054;-75
2022/10/09 03:48:57;;;;;;;13.98;8.63;;;;;;;6.27;100.00;101319.66;5116326;28;20638;-78
2022/10/09 03:51:25;;;;;;;15.20;8.95;;;;;;;6.24;100.00;101319.72;5116265;28;20116;-82
2022/10/09 03:53:51;;;;;;;13.60;8.48;;;;;;;6.23;100.00;101323.22;5113674;28;20040;-83
2022/10/09 03:56:18;;;;;;;12.13;8.68;;;;;;;6.02;100.00;101295.47;5108351;28;20190;-80
2022/10/09 03:58:45;;;;;;;14.13;9.20;;;;;;;6.12;100.00;101327.78;5102488;28;20043;-75
2022/10/09 04:01:11;;;;;;;11.15;8.40;;;;;;;5.94;100.00;101300.84;5113343;28;20044;-83
2022/10/09 04:03:38;;;;;;;13.90;8.95;;;;;;;6.08;100.00;101315.56;5096071;28;20044;-81
2022/10/09 04:06:06;;;;;;;17.08;9.07;;;;;;;6.08;100.00;101326.06;5089579;28;20591;-83
2022/10/09 04:08:34;;;;;;;15.23;9.55;;;;;;;6.05;100.00;101323.47;5107718;28;20479;-78
2022/10/09 04:11:02;;;;;;;16.00;9.20;;;;;;;5.92;100.00;101296.50;5105275;28;20126;-81
2022/10/09 04:13:28;;;;;;;16.00;9.82;;;;;;;6.01;100.00;101293.72;5114257;28;20053;-83
2022/10/09 04:15:56;;;;;;;12.82;8.90;;;;;;;6.20;100.00;101325.91;5113539;28;20040;-78
2022/10/09 04:18:23;;;;;;;14.27;9.27;;;;;;;6.14;100.00;101326.84;5121997;28;20032;-82
2022/10/09 04:20:52;;;;;;;13.07;8.25;;;;;;;6.08;100.00;101321.69;5126036;28;20039;-71
2022/10/09 04:23:20;;;;;;;12.90;8.98;;;;;;;5.87;100.00;101295.66;5127665;27;20051;-71
2022/10/09 04:25:46;;;;;;;12.63;8.70;;;;;;;6.01;100.00;101320.03;5119639;28;20048;-71
2022/10/09 04:28:13;;;;;;;12.82;8.60;;;;;;;5.99;100.00;101319.16;5123872;27;20044;-73
2022/10/09 04:30:40;;;;;;;16.10;8.90;;;;;;;6.04;100.00;101319.97;5128612;28;20050;-75
2022/10/09 04:33:06;;;;;;;10.85;7.70;;;;;;;6.04;100.00;101313.84;5117206;27;20047;-74
2022/10/09 04:35:45;;;;;;;14.68;8.93;;;;;;;6.09;100.00;101317.28;5126851;28;20052;-73
2022/10/09 04:38:12;;;;;;;11.63;8.15;;;;;;;6.09;100.00;101317.28;5124496;28;20046;-72
2022/10/09 04:40:38;;;;;;;9.35;7.35;;;;;;;6.14;100.00;101320.75;5119141;28;20052;-71
2022/10/09 04:43:05;;;;;;;14.25;7.85;;;;;;;6.12;100.00;101323.41;5118380;28;20058;-77
2022/10/09 04:45:31;;;;;;;11.43;8.05;;;;;;;6.11;100.00;101323.41;5112845;28;20062;-78
2022/10/09 04:47:58;;;;;;;10.40;8.10;;;;;;;6.06;100.00;101320.84;5112080;28;20085;-84
2022/10/09 04:50:25;;;;;;;9.20;7.97;;;;;;;5.90;100.00;101301.78;5099094;28;20476;-76
2022/10/09 04:52:52;;;;;;;14.00;7.93;;;;;;;5.97;100.00;101315.72;5105823;28;20056;-81
2022/10/09 04:55:18;;;;;;;13.88;8.52;;;;;;;5.88;100.00;101300.91;5102166;28;20111;-82
2022/10/09 04:57:45;;;;;;;11.10;7.95;;;;;;;5.83;100.00;101299.19;5107387;28;20138;-74
2022/10/09 05:00:12;;;;;;;13.38;8.20;;;;;;;5.74;100.00;101276.53;5112915;28;20047;-81
2022/10/09 05:02:39;;;;;;;14.50;8.18;;;;;;;5.92;100.00;101315.75;5101717;28;20076;-76
2022/10/09 05:05:06;;;;;;;8.93;7.25;;;;;;;5.89;100.00;101310.53;5106208;28;20133;-78
2022/10/09 05:07:33;;;;;;;10.82;8.25;;;;;;;5.85;100.00;101307.94;5108384;28;20065;-84
2022/10/09 05:09:59;;;;;;;13.45;8.38;;;;;;;5.86;100.00;101309.69;5105119;28;20131;-74
2022/10/09 05:12:26;;;;;;;11.68;8.55;;;;;;;5.89;100.00;101310.53;5108368;28;20042;-80
2022/10/09 05:14:52;;;;;;;13.43;8.07;;;;;;;5.86;100.00;101315.81;5106700;28;20135;-82
2022/10/09 05:17:19;;;;;;;13.07;8.13;;;;;;;5.84;100.00;101317.56;5108158;28;20040;-84
2022/10/09 05:19:49;;;;;;;14.38;8.63;;;;;;;5.77;100.00;101304.56;5108082;28;20048;-79
2022/10/09 05:22:15;;;;;;;10.63;7.85;;;;;;;5.82;100.00;101311.50;5104977;28;20054;-78
2022/10/09 05:24:42;;;;;;;10.95;8.35;;;;;;;5.81;100.00;101319.41;5102160;28;20054;-74
2022/10/09 05:27:08;;;;;;;9.73;8.00;;;;;;;5.71;100.00;101310.75;5108527;28;20044;-85
2022/10/09 05:29:35;;;;;;;13.32;8.93;;;;;;;5.68;100.00;101312.53;5111359;28;20048;-80
2022/10/09 05:32:02;;;;;;;10.57;8.10;;;;;;;5.67;100.00;101324.78;5115605;28;20040;-78
2022/10/09 05:34:29;;;;;;;11.50;8.50;;;;;;;5.68;100.00;101321.28;5114183;28;20079;-79
2022/10/09 05:36:55;;;;;;;11.93;8.38;;;;;;;5.76;100.00;101316.81;5104821;28;20066;-75
2022/10/09 05:39:22;;;;;;;13.00;7.88;;;;;;;5.70;100.00;101293.22;5116288;28;20052;-77
2022/10/09 05:41:49;;;;;;;10.65;7.53;;;;;;;5.81;100.00;101309.75;5112521;28;20126;-85
2022/10/09 05:44:15;;;;;;;12.38;7.38;;;;;;;5.62;100.00;101288.09;5103885;28;20040;-79
2022/10/09 05:46:42;;;;;;;10.30;7.30;;;;;;;5.60;100.00;101291.63;5109073;28;20108;-78
2022/10/09 05:49:09;;;;;;;11.68;7.50;;;;;;;5.76;100.00;101316.81;5103404;28;20047;-79
2022/10/09 05:51:38;;;;;;;12.20;7.68;;;;;;;5.75;100.00;101317.72;5108704;28;20052;-80
2022/10/09 05:54:05;;;;;;;12.37;8.63;;;;;;;5.64;100.00;101306.47;5102548;28;20135;-85
2022/10/09 05:56:34;;;;;;;11.57;8.55;;;;;;;5.64;100.00;101316.97;5102808;28;20463;-73
2022/10/09 05:59:07;;;;;;;13.45;8.48;;;;;;;5.63;100.00;101318.75;5110079;28;20043;-84
2022/10/09 06:01:36;;;;;;;11.73;7.93;;;;;;;5.43;100.00;101283.06;5100607;28;20062;-74
2022/10/09 06:04:05;;;;;;;13.88;8.10;;;;;;;5.58;100.00;101309.16;5118480;28;20143;-84
2022/10/09 06:06:35;;;;;;;12.25;8.20;;;;;;;5.60;100.00;101317.91;5103601;28;20502;-76
2022/10/09 06:09:02;;;;;;;12.88;8.40;;;;;;;5.61;100.00;101304.75;5114596;28;20066;-84
2022/10/09 06:11:31;;;;;;;12.40;7.80;;;;;;;5.61;100.00;101315.25;5110031;28;20115;-71
2022/10/09 06:14:00;;;;;;;12.40;7.78;;;;;;;5.59;100.00;101313.53;5108943;28;20039;-79
2022/10/09 06:16:30;;;;;;;14.00;8.20;;;;;;;5.60;100.00;101324.03;5106159;28;20044;-86
2022/10/09 06:18:57;;;;;;;11.48;8.18;;;;;;;5.51;100.00;101297.00;5112123;28;20048;-83
2022/10/09 06:21:25;;;;;;;13.93;8.05;;;;;;;5.46;100.00;101296.16;5111004;28;20044;-82
2022/10/09 06:23:55;;;;;;;12.73;8.02;;;;;;;5.65;100.00;101318.72;5117374;28;20058;-84
2022/10/09 06:26:22;;;;;;;11.07;8.10;;;;;;;5.67;100.00;101323.97;5104074;28;20119;-80
2022/10/09 06:28:49;;;;;;;10.63;7.68;;;;;;;5.67;100.00;101321.34;5112153;28;20115;-85
2022/10/09 06:31:19;;;;;;;10.85;7.40;;;;;;;5.65;100.00;101310.84;5093417;28;20039;-79
2022/10/09 06:33:47;;;;;;;9.63;8.05;;;;;;;5.74;100.00;101320.34;5106258;28;20048;-73
2022/10/09 06:36:22;;;;;;;12.25;7.70;;;;;;;5.84;100.00;101321.97;5107894;27;20052;-83
2022/10/09 06:38:49;;;;;;;12.25;7.93;;;;;;;5.72;100.00;101299.34;5113246;28;20117;-86
2022/10/09 06:41:18;;;;;;;12.55;8.35;;;;;;;5.94;100.00;101321.00;5108611;28;20055;-76
2022/10/09 06:43:51;;;;;;;10.13;7.80;;;;;;;5.98;100.00;101315.66;5099786;28;20047;-72
2022/10/09 06:46:19;;;;;;;14.25;8.35;;;;;;;5.91;100.00;101297.38;5105774;28;20127;-80
2022/10/09 06:48:46;;;;;;;12.93;7.93;;;;;;;6.02;100.00;101292.84;5106528;28;20503;-80
2022/10/09 06:51:16;;;;;;;16.80;8.13;;;;;;;6.13;100.00;101293.56;5103388;28;20111;-87
2022/10/09 06:53:48;;;;;;;11.73;7.80;;;;;;;6.47;100.00;101330.75;5111382;27;20118;-75
2022/10/09 06:56:17;;;;;;;14.07;7.80;;;;;;;6.68;100.00;101325.16;5106850;28;20056;-75
2022/10/09 06:58:44;;;;;;;11.88;7.45;;;;;;;6.90;100.00;101330.94;5117670;28;20048;-76
2022/10/09 07:01:23;;;;;;;9.70;7.15;;;;;;;7.23;100.00;101329.47;5119393;28;20527;-77
2022/10/09 07:03:56;;;;;;;9.63;6.38;;;;;;;7.46;100.00;101321.13;5114041;28;20061;-81
2022/10/09 07:06:25;;;;;;;10.15;6.85;;;;;;;7.75;100.00;101325.81;5111394;28;20052;-73
2022/10/09 07:08:56;;;;;;;11.70;6.78;;;;;;;7.96;100.00;101296.38;5108934;28;20498;-81
2022/10/09 07:11:31;;;;;;;12.98;6.47;;;;;;;8.42;97.71;101338.44;5112117;28;20074;-80
2022/10/09 07:14:00;;;;;;;9.45;5.72;;;;;;;8.62;96.17;101327.41;5112178;28;20052;-82
2022/10/09 07:16:32;;;;;;;11.60;5.93;;;;;;;8.74;93.77;101337.69;5114050;28;20071;-79
2022/10/09 07:19:02;;;;;;;8.65;6.15;;;;;;;8.80;92.82;101339.31;5094119;28;20463;-80
2022/10/09 07:21:30;;;;;;;11.10;5.78;;;;;;;8.90;91.99;101340.81;5112655;28;20489;-81
2022/10/09 07:23:59;;;;;;;6.55;5.25;;;;;;;9.04;90.70;101328.13;5116623;28;20043;-82
2022/10/09 07:26:28;;;;;;;8.70;5.60;;;;;;;9.17;89.69;101339.22;5108212;28;20103;-80
2022/10/09 07:28:55;;;;;;;10.90;5.40;;;;;;;9.33;89.04;101331.75;5103360;28;20127;-84
2022/10/09 07:31:22;;;;;;;8.38;4.85;;;;;;;9.52;88.77;101332.13;5116384;28;20048;-74
2022/10/09 07:33:50;;;;;;;8.93;4.90;;;;;;;9.59;86.09;101317.84;5123357;28;20134;-80
2022/10/09 07:36:18;;;;;;;6.70;4.90;;;;;;;9.83;84.01;101335.63;5110706;28;20086;-75
2022/10/09 07:38:49;;;;;;;7.60;5.22;;;;;;;9.81;83.97;101337.47;5109613;28;20682;-81
2022/10/09 07:41:17;;;;;;;8.93;5.00;;;;;;;9.83;83.18;101340.94;5112034;28;20075;-75
2022/10/09 07:43:43;;;;;;;7.65;5.80;;;;;;;9.90;83.04;101336.34;5115146;28;20098;-83
2022/10/09 07:46:15;;;;;;;8.15;5.00;;;;;;;9.77;83.67;101314.66;5106374;28;20115;-76
2022/10/09 07:48:42;;;;;;;6.15;5.10;;;;;;;10.01;83.86;101324.53;5109522;28;20123;-81
2022/10/09 07:51:12;;;;;;;7.93;5.20;;;;;;;10.11;83.55;101330.41;5112286;28;20054;-84
2022/10/09 07:53:38;;;;;;;7.32;5.30;;;;;;;10.13;83.46;101331.22;5107194;28;20043;-79
2022/10/09 07:56:06;;;;;;;5.90;5.18;;;;;;;10.08;83.41;101336.63;5104900;28;20090;-80
2022/10/09 07:58:33;;;;;;;7.15;4.90;;;;;;;10.06;83.12;101325.25;5110964;28;20043;-84
2022/10/09 08:01:06;;;;;;;6.80;4.90;;;;;;;10.14;84.27;101325.88;5103321;28;20058;-81
2022/10/09 08:03:34;;;;;;;10.40;5.10;;;;;;;10.49;82.64;101330.13;5111310;28;20130;-80
2022/10/09 08:06:00;;;;;;;5.70;4.78;;;;;;;10.80;81.12;101329.13;5110026;27;20047;-83
2022/10/09 08:08:27;;;;;;;8.52;5.18;;;;;;;11.13;79.48;101333.31;5109406;28;20043;-85
2022/10/09 08:10:54;;;;;;;8.27;4.88;;;;;;;11.56;76.90;101326.47;5106593;28;20061;-81
2022/10/09 08:13:21;;;;;;;7.60;4.13;;;;;;;11.93;75.28;101312.75;5111268;27;20065;-84
2022/10/09 08:15:47;;;;;;;7.03;4.35;;;;;;;12.17;73.52;101322.41;5112581;28;20404;-74
2022/10/09 08:18:14;;;;;;;9.43;4.57;;;;;;;11.89;71.97;101282.81;5110981;28;20036;-80
2022/10/09 08:20:41;;;;;;;9.85;4.07;;;;;;;11.82;73.54;101326.41;5105805;28;20043;-78
2022/10/09 08:23:08;;;;;;;8.02;4.82;;;;;;;11.53;76.16;101314.19;5105736;28;20044;-81
2022/10/09 08:25:35;;;;;;;7.40;4.60;;;;;;;11.39;77.42;101311.16;5103848;28;20448;-78
2022/10/09 08:28:03;;;;;;;7.60;4.50;;;;;;;11.21;77.60;101307.38;5097956;28;20059;-86
2022/10/09 08:30:30;;;;;;;7.68;4.25;;;;;;;11.05;79.06;101305.31;5092638;28;20063;-72
2022/10/09 08:32:56;;;;;;;8.15;4.80;;;;;;;10.89;79.90;101310.25;5096812;28;20043;-86
2022/10/09 08:35:23;;;;;;;7.88;4.35;;;;;;;10.86;81.08;101310.38;5096328;28;20052;-75
2022/10/09 08:37:50;;;;;;;5.85;4.57;;;;;;;10.72;80.29;101289.63;5095790;28;20115;-80
2022/10/09 08:40:32;;;;;;;8.00;4.38;;;;;;;10.75;81.16;101305.44;5102533;28;20048;-83
2022/10/09 08:43:03;;;;;;;8.55;4.18;;;;;;;10.75;81.52;101310.72;5101088;28;20279;-85
2022/10/09 08:45:33;;;;;;;9.18;4.38;;;;;;;10.71;81.85;101300.28;5105697;28;20059;-78
2022/10/09 08:48:11;;;;;;;7.80;3.90;;;;;;;10.76;81.89;101314.25;5115893;28;20072;-74
2022/10/09 08:50:42;;;;;;;5.63;3.45;;;;;;;10.86;83.19;101311.22;5118776;28;20082;-73
2022/10/09 08:53:37;;;;;;;7.00;4.20;;;;;;;10.99;81.56;101300.22;5113707;27;20452;-77
2022/10/09 08:56:08;;;;;;;7.47;3.63;;;;;;;11.13;82.31;101297.97;5121773;27;20024;-77
2022/10/09 08:58:38;;;;;;;6.28;4.15;;;;;;;11.23;80.45;101289.63;5128093;28;20067;-74
2022/10/09 09:01:23;;;;;;;7.55;4.10;;;;;;;11.37;80.58;101293.56;5123650;27;20058;-74
2022/10/09 09:04:21;;;;;;;6.45;3.75;;;;;;;11.54;80.64;101288.53;5125934;28;20040;-71
2022/10/09 09:07:25;;;;;;;7.93;4.07;;;;;;;11.69;79.86;101285.31;5123334;28;20084;-82
2022/10/09 09:10:10;;;;;;;6.63;3.72;;;;;;;11.80;78.80;101287.59;5115943;28;20067;-84
2022/10/09 09:12:49;;;;;;;7.47;4.20;;;;;;;11.73;78.31;101254.22;5121864;28;20082;-74
2022/10/09 09:15:25;;;;;;;6.20;3.65;;;;;;;12.01;77.78;101277.94;5116424;28;20130;-81
2022/10/09 09:18:15;;;;;;;5.40;3.60;;;;;;;12.16;77.38;101278.19;5120382;28;20040;-75
2022/10/09 09:20:52;;;;;;;;;;;;;;;12.20;76.99;101253.25;5124616;28;20092;-71
2022/10/09 09:23:30;;;;;;;8.73;3.63;;;;;;;12.48;76.60;101270.72;5133610;27;19919;-74
2022/10/09 09:25:58;;;;;;;6.50;3.28;;;;;;;12.55;75.15;101269.56;5128505;27;20036;-72
2022/10/09 09:28:33;;;;;;;8.88;3.10;;;;;;;12.68;74.42;101254.84;5152872;22;20027;-74
2022/10/09 09:31:05;;;;;;;6.32;3.05;;;;;;;12.78;74.48;101244.66;5083470;22;20271;-71
2022/10/09 09:34:07;;;;;;;5.72;2.83;;;;;;;12.93;73.03;101246.66;5073383;28;20040;-72
2022/10/09 09:36:46;;;;;;;5.43;2.97;;;;;;;13.05;71.24;101240.84;5067866;28;20087;-71
2022/10/09 09:39:13;;;;;;;8.13;2.53;;;;;;;13.12;71.44;101244.94;5068025;28;20045;-74
2022/10/09 09:42:06;;;;;;;6.35;2.92;;;;;;;13.06;70.58;101210.66;5068864;28;20047;-72
2022/10/09 09:44:35;;;;;;;7.40;2.50;;;;;;;13.30;69.79;101227.34;5060018;28;20049;-81
2022/10/09 09:47:01;;;;;;;8.75;2.95;;;;;;;13.33;69.49;101219.22;5068142;28;20120;-80
2022/10/09 09:49:28;;;;;;;6.60;2.85;;;;;;;13.42;69.09;101213.47;5060437;28;20076;-81
2022/10/09 09:51:59;;;;;;;7.32;2.85;;;;;;;13.56;69.54;101221.69;5062476;28;20141;-75
2022/10/09 09:54:28;;;;;;;8.25;3.00;;;;;;;13.70;68.17;101210.41;5058257;28;20065;-81
2022/10/09 09:56:57;;;;;;;7.35;3.08;;;;;;;13.79;67.82;101193.16;5062234;28;20100;-79
2022/10/09 09:59:44;;;;;;;6.40;2.67;;;;;;;13.97;66.78;101205.59;5051239;28;20060;-77
2022/10/09 10:02:15;;;;;;;5.97;2.65;;;;;;;14.09;65.94;101201.44;5059291;28;20071;-83
2022/10/09 10:04:51;;;;;;;7.75;2.60;;;;;;;14.04;65.08;101169.72;5051522;28;20057;-73
2022/10/09 10:07:38;;;;;;;5.22;2.45;;;;;;;14.27;64.87;101190.75;5054944;28;20056;-73
2022/10/09 10:10:22;;;;;;;6.07;2.63;;;;;;;14.41;64.32;101192.78;5047782;28;20059;-71
2022/10/09 10:12:51;;;;;;;5.25;2.72;;;;;;;14.52;64.21;101187.75;5056002;28;20122;-84
2022/10/09 10:15:22;;;;;;;4.07;2.30;;;;;;;14.55;62.72;101171.63;5056683;28;20056;-78
2022/10/09 10:18:06;;;;;;;4.15;2.10;;;;;;;14.57;62.22;101166.22;5054681;28;20481;-82
2022/10/09 10:20:43;;;;;;;4.32;2.30;;;;;;;14.82;61.34;101182.66;5053424;28;20084;-85
2022/10/09 10:23:33;;;;;;;6.75;3.00;;;;;;;14.92;60.80;101186.56;5057196;28;20163;-77
2022/10/09 10:26:21;;;;;;;4.53;2.28;;;;;;;15.03;61.07;101183.34;5058160;28;20073;-78
2022/10/09 10:28:58;;;;;;;4.50;2.78;;;;;;;15.08;59.79;101174.16;5053196;28;20116;-85
2022/10/09 10:31:42;;;;;;;5.25;2.90;;;;;;;15.14;59.67;101172.94;5057996;28;20056;-80
2022/10/09 10:34:23;;;;;;;8.25;2.65;;;;;;;15.19;60.40;101170.03;5054637;28;20135;-82
2022/10/09 10:36:58;;;;;;;8.05;2.72;;;;;;;15.29;59.27;101166.78;5052916;28;20759;-79
2022/10/09 10:39:53;;;;;;;6.53;2.25;;;;;;;15.47;59.19;101164.06;5055100;28;20045;-81
2022/10/09 10:42:42;;;;;;;5.00;2.67;;;;;;;15.63;58.56;101149.81;5058318;28;20461;-84
2022/10/09 10:45:13;;;;;;;4.70;2.63;;;;;;;15.81;58.30;101155.06;5050961;28;20104;-72
2022/10/09 10:47:47;;;;;;;5.90;2.58;;;;;;;15.85;55.86;101138.78;5057201;28;20052;-78
2022/10/09 10:50:17;;;;;;;4.68;2.55;;;;;;;15.92;56.04;101141.97;5045960;28;20044;-82
2022/10/09 10:52:56;;;;;;;3.50;2.35;;;;;;;15.95;54.99;101148.00;5052691;28;20085;-80
2022/10/09 10:55:38;;;;;;;3.58;2.08;;;;;;;16.03;54.79;101151.09;5048145;28;20053;-81
2022/10/09 10:58:18;;;;;;;3.50;2.25;;;;;;;16.11;53.84;101135.47;5046338;28;20071;-77
2022/10/09 11:01:11;;;;;;;4.65;2.30;;;;;;;16.12;54.21;101129.19;5050393;28;20060;-78
2022/10/09 11:04:08;;;;;;;5.03;2.28;;;;;;;16.22;54.07;101132.16;5019298;28;20052;-78
2022/10/09 11:06:51;;;;;;;3.90;1.95;;;;;;;16.26;54.43;101122.16;5050686;28;20054;-79
2022/10/09 11:09:31;;;;;;;5.00;2.35;;;;;;;16.27;53.29;101116.72;5047811;28;20048;-80
2022/10/09 11:12:19;;;;;;;2.72;2.00;;;;;;;16.25;53.57;101107.94;5053388;28;20037;-84
2022/10/09 11:15:25;;;;;;;5.30;2.40;;;;;;;16.35;53.85;101111.81;5052571;28;20057;-79
2022/10/09 11:17:55;;;;;;;5.90;2.38;;;;;;;16.46;52.81;101104.00;5049927;28;20065;-79
2022/10/09 11:20:48;;;;;;;8.68;2.55;;;;;;;16.52;52.14;101102.78;5035351;28;20045;-84
2022/10/09 11:23:52;;;;;;;4.22;2.40;;;;;;;16.58;51.98;101101.53;5054477;28;20055;-80
2022/10/09 11:26:45;;;;;;;3.70;2.33;;;;;;;16.61;52.41;101091.50;5052122;28;20471;-80
2022/10/09 11:29:19;;;;;;;4.75;2.15;;;;;;;16.69;52.03;101081.22;5052044;28;20072;-80
2022/10/09 11:32:00;;;;;;;5.15;2.15;;;;;;;16.58;52.06;101054.25;5060246;28;20041;-79
2022/10/09 11:34:38;;;;;;;4.47;1.92;;;;;;;16.88;51.53;101082.75;5047653;28;20045;-74
2022/10/09 11:37:16;;;;;;;3.58;1.75;;;;;;;16.98;49.22;101068.72;5050876;28;20144;-82
2022/10/09 11:39:44;;;;;;;3.95;1.70;;;;;;;16.87;48.89;101051.63;5047684;28;20053;-79
2022/10/09 11:42:15;;;;;;;6.57;1.92;;;;;;;16.88;48.75;101054.19;5049145;28;20037;-83